createdAt,value
2023-03-07T00:00:28.055Z,98679.78
2023-03-07T00:01:03.330Z,98680.78
2023-03-07T00:01:37.603Z,98683.75
2023-03-07T00:02:12.841Z,98679.94
2023-03-07T00:02:52.238Z,98679.94
2023-03-07T00:03:27.892Z,98687.41
2023-03-07T00:04:03.759Z,98686.41
2023-03-07T00:04:39.072Z,98681.06
2023-03-07T00:05:15.040Z,98687.06
2023-03-07T00:05:49.972Z,98679.78
2023-03-07T00:06:25.669Z,98683.75
2023-03-07T00:07:01.173Z,98682.59
2023-03-07T00:07:35.353Z,98683.91
2023-03-07T00:08:10.235Z,98690.75
2023-03-07T00:08:43.902Z,98683.75
2023-03-07T00:09:18.887Z,98693.41
2023-03-07T00:09:53.861Z,98690.06
2023-03-07T00:10:28.823Z,98690.06
2023-03-07T00:11:08.452Z,98694.25
2023-03-07T00:11:41.975Z,98694.59
2023-03-07T00:12:17.008Z,98693.06
2023-03-07T00:12:52.026Z,98695.94
2023-03-07T00:13:30.316Z,98688.91
2023-03-07T00:14:07.561Z,98690.09
2023-03-07T00:14:40.931Z,98694.09
2023-03-07T00:15:15.928Z,98680.41
2023-03-07T00:15:50.968Z,98689.44
2023-03-07T00:16:26.886Z,98688.44
2023-03-07T00:17:02.672Z,98689.09
2023-03-07T00:17:38.931Z,98687.28
2023-03-07T00:18:13.961Z,98685.78
2023-03-07T00:18:49.618Z,98691.09
2023-03-07T00:19:24.839Z,98689.94
2023-03-07T00:19:59.796Z,98692.47
2023-03-07T00:20:34.835Z,98687.13
2023-03-07T00:21:42.830Z,98692.09
2023-03-07T00:22:17.966Z,98686.78
2023-03-07T00:22:52.944Z,98692.28
2023-03-07T00:23:27.998Z,98683.56
2023-03-07T00:24:02.942Z,98686.09
2023-03-07T00:24:38.386Z,98689.06
2023-03-07T00:25:11.852Z,98692.09
2023-03-07T00:26:10.723Z,98692.09
2023-03-07T00:27:18.553Z,98691.47
2023-03-07T00:27:54.142Z,98694.81
2023-03-07T00:29:01.815Z,98693.47
2023-03-07T00:29:36.932Z,98694.13
2023-03-07T00:30:14.780Z,98696.81
2023-03-07T00:31:22.482Z,98695.97
2023-03-07T00:31:55.912Z,98690.63
2023-03-07T00:32:28.979Z,98691.09
2023-03-07T00:33:03.945Z,98694.78
2023-03-07T00:33:39.828Z,98696.59
2023-03-07T00:34:14.828Z,98691.09
2023-03-07T00:34:49.969Z,98696.13
2023-03-07T00:35:24.910Z,98693.78
2023-03-07T00:36:06.256Z,98695.06
2023-03-07T00:36:39.479Z,98684.09
2023-03-07T00:37:13.989Z,98692.94
2023-03-07T00:37:47.240Z,98694.31
2023-03-07T00:38:23.080Z,98688.44
2023-03-07T00:38:57.915Z,98691.94
2023-03-07T00:39:32.854Z,98693.41
2023-03-07T00:40:09.549Z,98690.91
2023-03-07T00:40:44.906Z,98689.75
2023-03-07T00:41:29.295Z,98691.56
2023-03-07T00:42:03.168Z,98695.59
2023-03-07T00:42:38.868Z,98694.78
2023-03-07T00:43:13.810Z,98693.28
2023-03-07T00:43:49.350Z,98690.44
2023-03-07T00:44:23.086Z,98686.94
2023-03-07T00:44:57.974Z,98688.78
2023-03-07T00:45:32.951Z,98694.78
2023-03-07T00:46:08.445Z,98684.28
2023-03-07T00:46:43.904Z,98684.94
2023-03-07T00:47:18.936Z,98687.59
2023-03-07T00:48:26.600Z,98686.75
2023-03-07T00:49:02.058Z,98686.75
2023-03-07T00:49:36.986Z,98677.00
2023-03-07T00:50:11.934Z,98682.66
2023-03-07T00:50:47.332Z,98678.84
2023-03-07T00:51:23.533Z,98685.56
2023-03-07T00:51:58.934Z,98680.19
2023-03-07T00:55:04.933Z,98671.16
2023-03-07T00:56:16.778Z,98671.00
2023-03-07T00:56:50.273Z,98673.84
2023-03-07T00:57:26.000Z,98675.16
2023-03-07T00:58:01.122Z,98667.50
2023-03-07T00:59:08.628Z,98668.84
2023-03-07T00:59:43.984Z,98679.16
2023-03-07T01:00:16.670Z,98675.16
2023-03-07T01:00:50.254Z,98675.03
2023-03-07T01:01:23.696Z,98668.53
2023-03-07T01:01:58.950Z,98669.19
2023-03-07T01:02:57.875Z,98674.88
2023-03-07T01:04:05.356Z,98672.88
2023-03-07T01:04:39.148Z,98675.91
2023-03-07T01:05:14.019Z,98675.91
2023-03-07T01:05:49.634Z,98675.91
2023-03-07T01:06:30.342Z,98674.41
2023-03-07T01:07:03.976Z,98674.16
2023-03-07T01:07:38.956Z,98684.00
2023-03-07T01:08:14.388Z,98674.16
2023-03-07T01:09:21.980Z,98681.25
2023-03-07T01:09:57.022Z,98679.03
2023-03-07T01:10:33.364Z,98671.66
2023-03-07T01:11:07.765Z,98676.69
2023-03-07T01:11:43.187Z,98678.72
2023-03-07T01:12:17.043Z,98673.53
2023-03-07T01:12:51.917Z,98675.25
2023-03-07T01:13:27.110Z,98666.53
2023-03-07T01:14:04.876Z,98664.69
2023-03-07T01:14:39.955Z,98672.56
2023-03-07T01:15:15.128Z,98670.53
2023-03-07T01:15:50.133Z,98663.88
2023-03-07T01:16:30.670Z,98670.19
2023-03-07T01:17:05.994Z,98666.53
2023-03-07T01:17:40.949Z,98662.88
2023-03-07T01:18:15.996Z,98665.88
2023-03-07T01:18:55.280Z,98671.38
2023-03-07T01:19:28.998Z,98671.38
2023-03-07T01:20:10.212Z,98661.63
2023-03-07T01:20:44.217Z,98670.13
2023-03-07T01:21:25.630Z,98667.13
2023-03-07T01:22:01.407Z,98667.81
2023-03-07T01:22:34.744Z,98670.78
2023-03-07T01:23:10.263Z,98667.59
2023-03-07T01:23:43.664Z,98679.44
2023-03-07T01:24:18.095Z,98678.59
2023-03-07T01:25:24.048Z,98671.88
2023-03-07T01:26:31.485Z,98685.44
2023-03-07T01:27:06.990Z,98678.59
2023-03-07T01:28:14.757Z,98682.75
2023-03-07T01:28:55.239Z,98678.59
2023-03-07T01:29:29.077Z,98683.09
2023-03-07T01:30:05.065Z,98679.25
2023-03-07T01:30:39.969Z,98674.38
2023-03-07T01:31:15.084Z,98676.94
2023-03-07T01:31:50.048Z,98679.25
2023-03-07T01:32:25.140Z,98674.47
2023-03-07T01:32:59.951Z,98681.75
2023-03-07T01:34:06.717Z,98682.75
2023-03-07T01:34:39.514Z,98678.25
2023-03-07T01:35:12.944Z,98683.94
2023-03-07T01:35:46.046Z,98679.44
2023-03-07T01:36:25.557Z,98680.06
2023-03-07T01:36:59.124Z,98678.38
2023-03-07T01:37:34.030Z,98688.72
2023-03-07T01:38:09.636Z,98680.38
2023-03-07T01:38:46.489Z,98678.00
2023-03-07T01:39:20.155Z,98674.69
2023-03-07T01:39:55.698Z,98678.00
2023-03-07T01:41:04.079Z,98681.13
2023-03-07T01:41:39.002Z,98687.31
2023-03-07T01:42:14.030Z,98688.84
2023-03-07T01:42:49.015Z,98680.84
2023-03-07T01:43:26.913Z,98682.34
2023-03-07T01:44:06.157Z,98675.81
2023-03-07T01:45:05.955Z,98677.19
2023-03-07T01:45:46.851Z,98679.84
2023-03-07T01:46:34.426Z,98680.00
2023-03-07T01:47:43.585Z,98673.31
2023-03-07T01:48:17.835Z,98672.00
2023-03-07T01:49:01.020Z,98670.34
2023-03-07T01:49:58.880Z,98665.09
2023-03-07T01:50:33.606Z,98674.75
2023-03-07T01:51:09.023Z,98675.91
2023-03-07T01:51:49.529Z,98677.75
2023-03-07T01:52:58.810Z,98681.03
2023-03-07T01:53:34.487Z,98672.72
2023-03-07T01:54:11.977Z,98675.38
2023-03-07T01:54:54.630Z,98675.53
2023-03-07T01:56:03.845Z,98680.19
2023-03-07T01:56:38.808Z,98676.91
2023-03-07T01:57:14.032Z,98680.72
2023-03-07T01:57:47.617Z,98680.19
2023-03-07T01:58:23.208Z,98675.03
2023-03-07T01:58:58.529Z,98663.84
2023-03-07T02:00:04.501Z,98667.75
2023-03-07T02:00:39.885Z,98658.38
2023-03-07T02:01:46.037Z,98660.19
2023-03-07T02:02:25.067Z,98668.19
2023-03-07T02:03:06.348Z,98663.81
2023-03-07T02:04:21.564Z,98666.66
2023-03-07T02:05:21.685Z,98667.66
2023-03-07T02:06:04.522Z,98663.16
2023-03-07T02:07:11.361Z,98665.53
2023-03-07T02:07:51.021Z,98669.72
2023-03-07T02:08:30.327Z,98669.94
2023-03-07T02:09:13.991Z,98671.31
2023-03-07T02:10:22.650Z,98668.66
2023-03-07T02:10:57.997Z,98671.16
2023-03-07T02:11:33.332Z,98671.31
2023-03-07T02:12:10.040Z,98667.94
2023-03-07T02:12:45.795Z,98679.81
2023-03-07T02:13:21.647Z,98672.81
2023-03-07T02:14:29.039Z,98671.59
2023-03-07T02:15:04.903Z,98677.25
2023-03-07T02:15:40.063Z,98669.75
2023-03-07T02:16:15.168Z,98683.78
2023-03-07T02:17:20.662Z,98677.59
2023-03-07T02:17:54.987Z,98664.06
2023-03-07T02:19:01.711Z,98680.53
2023-03-07T02:19:47.508Z,98680.91
2023-03-07T02:20:26.410Z,98683.41
2023-03-07T02:21:56.705Z,98676.53
2023-03-07T02:22:32.302Z,98674.34
2023-03-07T02:23:13.630Z,98685.69
2023-03-07T02:24:05.465Z,98681.50
2023-03-07T02:25:00.602Z,98686.84
2023-03-07T02:26:08.736Z,98684.22
2023-03-07T02:26:49.353Z,98683.25
2023-03-07T02:27:25.899Z,98689.88
2023-03-07T02:27:59.854Z,98686.75
2023-03-07T02:28:35.955Z,98686.44
2023-03-07T02:29:12.568Z,98691.16
2023-03-07T02:29:46.178Z,98685.63
2023-03-07T02:30:21.182Z,98695.28
2023-03-07T02:31:00.053Z,98698.44
2023-03-07T02:31:34.978Z,98698.44
2023-03-07T02:32:10.384Z,98707.81
2023-03-07T02:32:44.037Z,98705.16
2023-03-07T02:33:19.117Z,98711.47
2023-03-07T02:33:54.117Z,98710.94
2023-03-07T02:34:29.481Z,98713.81
2023-03-07T02:35:09.007Z,98709.34
2023-03-07T02:35:45.200Z,98705.59
2023-03-07T02:36:29.123Z,98719.16
2023-03-07T02:37:14.968Z,98715.38
2023-03-07T02:37:55.612Z,98710.47
2023-03-07T02:38:33.348Z,98718.91
2023-03-07T02:39:10.045Z,98717.41
2023-03-07T02:39:47.166Z,98716.56
2023-03-07T02:40:25.526Z,98723.56
2023-03-07T02:41:01.320Z,98718.09
2023-03-07T02:41:37.855Z,98723.72
2023-03-07T02:42:25.694Z,98723.72
2023-03-07T02:43:09.532Z,98722.97
2023-03-07T02:43:44.987Z,98720.31
2023-03-07T02:44:19.980Z,98721.97
2023-03-07T02:45:04.896Z,98720.97
2023-03-07T02:45:39.963Z,98709.09
2023-03-07T02:46:15.025Z,98713.91
2023-03-07T02:46:50.049Z,98708.28
2023-03-07T02:47:25.505Z,98711.94
2023-03-07T02:48:01.035Z,98713.91
2023-03-07T02:48:34.763Z,98713.06
2023-03-07T02:49:10.040Z,98713.38
2023-03-07T02:49:44.921Z,98718.84
2023-03-07T02:50:20.152Z,98715.34
2023-03-07T02:50:54.982Z,98724.00
2023-03-07T02:51:29.997Z,98722.50
2023-03-07T02:52:05.315Z,98717.03
2023-03-07T02:52:39.285Z,98718.84
2023-03-07T02:53:13.094Z,98719.84
2023-03-07T02:54:20.983Z,98718.63
2023-03-07T02:54:56.919Z,98719.75
2023-03-07T02:55:33.778Z,98717.09
2023-03-07T02:56:08.970Z,98712.75
2023-03-07T02:56:43.973Z,98710.00
2023-03-07T02:57:20.015Z,98717.00
2023-03-07T02:57:55.027Z,98719.53
2023-03-07T02:58:28.500Z,98722.19
2023-03-07T02:59:01.809Z,98717.84
2023-03-07T02:59:37.410Z,98718.81
2023-03-07T03:00:12.518Z,98729.34
2023-03-07T03:00:48.269Z,98719.66
2023-03-07T03:01:22.175Z,98723.47
2023-03-07T03:01:58.169Z,98729.34
2023-03-07T03:02:32.996Z,98725.28
2023-03-07T03:03:08.113Z,98724.31
2023-03-07T03:03:43.043Z,98730.31
2023-03-07T03:04:18.100Z,98733.28
2023-03-07T03:04:53.068Z,98737.59
2023-03-07T03:05:28.024Z,98735.25
2023-03-07T03:06:01.075Z,98732.06
2023-03-07T03:06:36.161Z,98726.72
2023-03-07T03:07:11.035Z,98737.53
2023-03-07T03:07:44.005Z,98730.81
2023-03-07T03:08:19.058Z,98737.81
2023-03-07T03:10:20.232Z,98732.56
2023-03-07T03:10:55.594Z,98735.91
2023-03-07T03:11:35.782Z,98738.72
2023-03-07T03:12:11.065Z,98736.47
2023-03-07T03:12:44.626Z,98733.16
2023-03-07T03:13:16.394Z,98737.31
2023-03-07T03:13:48.190Z,98731.75
2023-03-07T03:14:20.442Z,98735.97
2023-03-07T03:15:27.940Z,98734.41
2023-03-07T03:16:00.070Z,98733.72
2023-03-07T03:17:04.334Z,98736.56
2023-03-07T03:17:36.157Z,98731.94
2023-03-07T03:18:11.472Z,98726.25
2023-03-07T03:18:47.018Z,98736.88
2023-03-07T03:19:21.954Z,98728.34
2023-03-07T03:19:57.017Z,98726.25
2023-03-07T03:20:29.985Z,98728.19
2023-03-07T03:21:12.778Z,98727.09
2023-03-07T03:21:48.824Z,98721.38
2023-03-07T03:22:24.275Z,98719.88
2023-03-07T03:22:58.368Z,98718.47
2023-03-07T03:23:32.107Z,98713.59
2023-03-07T03:24:08.739Z,98723.09
2023-03-07T03:24:44.025Z,98712.78
2023-03-07T03:25:22.562Z,98718.22
2023-03-07T03:26:00.847Z,98723.00
2023-03-07T03:26:35.495Z,98718.94
2023-03-07T03:27:11.099Z,98725.50
2023-03-07T03:27:45.932Z,98724.25
2023-03-07T03:28:24.893Z,98717.00
2023-03-07T03:28:59.956Z,98719.66
2023-03-07T03:30:08.997Z,98723.00
2023-03-07T03:30:43.962Z,98731.28
2023-03-07T03:31:19.082Z,98719.44
2023-03-07T03:31:54.009Z,98723.06
2023-03-07T03:32:29.193Z,98724.03
2023-03-07T03:33:04.127Z,98725.28
2023-03-07T03:33:39.605Z,98716.50
2023-03-07T03:34:15.042Z,98720.41
2023-03-07T03:34:50.337Z,98717.47
2023-03-07T03:35:26.047Z,98720.28
2023-03-07T03:36:07.774Z,98727.69
2023-03-07T03:36:42.985Z,98725.19
2023-03-07T03:37:18.018Z,98723.91
2023-03-07T03:37:52.990Z,98725.44
2023-03-07T03:38:27.985Z,98720.28
2023-03-07T03:39:03.920Z,98726.69
2023-03-07T03:40:29.444Z,98728.09
2023-03-07T03:41:12.637Z,98716.50
2023-03-07T03:41:47.972Z,98728.25
2023-03-07T03:42:23.022Z,98725.28
2023-03-07T03:42:58.329Z,98723.91
2023-03-07T03:43:32.183Z,98719.03
2023-03-07T03:44:07.042Z,98717.91
2023-03-07T03:44:41.988Z,98720.56
2023-03-07T03:46:03.754Z,98723.38
2023-03-07T03:46:39.268Z,98720.69
2023-03-07T03:47:14.165Z,98726.69
2023-03-07T03:47:50.500Z,98721.69
2023-03-07T03:48:24.632Z,98725.88
2023-03-07T03:48:58.211Z,98720.28
2023-03-07T03:49:30.302Z,98723.78
2023-03-07T03:50:02.235Z,98722.53
2023-03-07T03:50:35.608Z,98719.31
2023-03-07T03:51:16.981Z,98716.66
2023-03-07T03:51:48.962Z,98720.97
2023-03-07T03:52:21.004Z,98723.50
2023-03-07T03:52:52.676Z,98717.63
2023-03-07T03:53:24.448Z,98722.25
2023-03-07T03:54:29.215Z,98712.19
2023-03-07T03:55:01.221Z,98720.69
2023-03-07T03:55:57.422Z,98719.44
2023-03-07T03:56:32.207Z,98720.03
2023-03-07T03:57:08.100Z,98709.97
2023-03-07T03:57:43.200Z,98710.78
2023-03-07T03:58:20.099Z,98715.28
2023-03-07T03:58:56.348Z,98712.63
2023-03-07T03:59:31.306Z,98706.31
2023-03-07T04:00:09.576Z,98707.00
2023-03-07T04:01:15.862Z,98712.03
2023-03-07T04:01:51.405Z,98708.13
2023-03-07T04:02:59.994Z,98703.50
2023-03-07T04:03:40.303Z,98706.72
2023-03-07T04:04:15.943Z,98712.03
2023-03-07T04:04:51.203Z,98701.28
2023-03-07T04:05:26.164Z,98705.75
2023-03-07T04:06:33.887Z,98708.00
2023-03-07T04:07:09.128Z,98706.00
2023-03-07T04:07:43.857Z,98702.38
2023-03-07T04:08:17.168Z,98705.19
2023-03-07T04:08:51.880Z,98711.06
2023-03-07T04:09:25.276Z,98703.34
2023-03-07T04:10:00.160Z,98707.56
2023-03-07T04:10:35.346Z,98705.75
2023-03-07T04:11:10.462Z,98706.59
2023-03-07T04:11:45.177Z,98708.69
2023-03-07T04:12:20.265Z,98708.53
2023-03-07T04:12:55.212Z,98708.53
2023-03-07T04:13:30.396Z,98704.91
2023-03-07T04:14:05.323Z,98702.94
2023-03-07T04:14:40.173Z,98712.44
2023-03-07T04:15:15.187Z,98707.00
2023-03-07T04:15:50.279Z,98708.66
2023-03-07T04:16:56.220Z,98701.53
2023-03-07T04:18:04.159Z,98714.25
2023-03-07T04:18:40.242Z,98705.28
2023-03-07T04:19:15.433Z,98707.00
2023-03-07T04:19:50.233Z,98706.00
2023-03-07T04:20:25.153Z,98718.00
2023-03-07T04:21:00.224Z,98711.75
2023-03-07T04:21:35.193Z,98713.94
2023-03-07T04:22:11.403Z,98712.28
2023-03-07T04:22:43.949Z,98713.81
2023-03-07T04:23:16.853Z,98713.09
2023-03-07T04:23:50.604Z,98709.63
2023-03-07T04:24:22.745Z,98715.09
2023-03-07T04:24:54.473Z,98714.09
2023-03-07T04:25:26.176Z,98717.31
2023-03-07T04:26:00.364Z,98721.50
2023-03-07T04:26:32.107Z,98718.00
2023-03-07T04:27:04.120Z,98716.47
2023-03-07T04:27:35.953Z,98719.13
2023-03-07T04:28:07.749Z,98717.16
2023-03-07T04:28:49.507Z,98719.66
2023-03-07T04:29:21.398Z,98717.84
2023-03-07T04:29:53.127Z,98719.53
2023-03-07T04:30:26.464Z,98715.03
2023-03-07T04:30:58.360Z,98716.88
2023-03-07T04:31:31.170Z,98712.00
2023-03-07T04:32:03.147Z,98718.41
2023-03-07T04:32:35.485Z,98719.56
2023-03-07T04:33:07.307Z,98713.25
2023-03-07T04:33:39.366Z,98713.66
2023-03-07T04:34:11.213Z,98713.53
2023-03-07T04:34:43.023Z,98717.69
2023-03-07T04:35:14.832Z,98710.44
2023-03-07T04:35:47.203Z,98711.69
2023-03-07T04:36:19.595Z,98711.53
2023-03-07T04:36:51.541Z,98710.56
2023-03-07T04:37:23.416Z,98705.13
2023-03-07T04:37:55.157Z,98706.22
2023-03-07T04:38:26.911Z,98710.56
2023-03-07T04:38:58.679Z,98709.19
2023-03-07T04:39:30.403Z,98708.22
2023-03-07T04:40:02.164Z,98704.31
2023-03-07T04:40:35.129Z,98701.78
2023-03-07T04:41:09.263Z,98696.63
2023-03-07T04:41:41.108Z,98702.06
2023-03-07T04:42:12.903Z,98693.72
2023-03-07T04:42:44.636Z,98695.22
2023-03-07T04:43:16.406Z,98699.56
2023-03-07T04:43:48.274Z,98699.41
2023-03-07T04:44:21.241Z,98704.59
2023-03-07T04:44:52.957Z,98701.22
2023-03-07T04:45:24.823Z,98695.22
2023-03-07T04:45:57.176Z,98698.72
2023-03-07T04:46:29.128Z,98694.41
2023-03-07T04:47:00.910Z,98700.41
2023-03-07T04:47:32.687Z,98704.88
2023-03-07T04:48:05.185Z,98700.13
2023-03-07T04:48:37.024Z,98704.31
2023-03-07T04:49:08.856Z,98702.63
2023-03-07T04:49:40.629Z,98702.78
2023-03-07T04:50:12.503Z,98702.78
2023-03-07T04:50:44.292Z,98697.31
2023-03-07T04:51:16.267Z,98700.13
2023-03-07T04:51:48.098Z,98699.56
2023-03-07T04:52:19.887Z,98700.53
2023-03-07T04:52:51.925Z,98703.34
2023-03-07T04:53:23.855Z,98696.91
2023-03-07T04:53:55.681Z,98700.25
2023-03-07T04:54:27.441Z,98702.91
2023-03-07T04:54:59.294Z,98698.44
2023-03-07T04:55:31.036Z,98700.13
2023-03-07T04:56:05.011Z,98699.81
2023-03-07T04:56:36.780Z,98705.44
2023-03-07T04:57:08.902Z,98698.19
2023-03-07T04:57:40.656Z,98698.56
2023-03-07T04:58:13.686Z,98701.78
2023-03-07T04:58:45.472Z,98702.78
2023-03-07T04:59:17.220Z,98705.13
2023-03-07T04:59:48.977Z,98706.13
2023-03-07T05:00:20.915Z,98699.56
2023-03-07T05:00:52.680Z,98702.91
2023-03-07T05:01:24.365Z,98703.78
2023-03-07T05:01:56.154Z,98707.38
2023-03-07T05:02:27.875Z,98705.84
2023-03-07T05:03:02.246Z,98703.19
2023-03-07T05:03:35.656Z,98703.19
2023-03-07T05:04:44.161Z,98701.94
2023-03-07T05:06:14.615Z,98700.25
2023-03-07T05:06:46.379Z,98700.25
2023-03-07T05:07:17.942Z,98706.44
2023-03-07T05:07:51.180Z,98702.91
2023-03-07T05:08:55.388Z,98705.97
2023-03-07T05:09:27.122Z,98705.97
2023-03-07T05:10:33.467Z,98708.78
2023-03-07T05:11:05.986Z,98709.47
2023-03-07T05:11:41.172Z,98707.53
2023-03-07T05:12:15.946Z,98695.34
2023-03-07T05:12:47.732Z,98702.22
2023-03-07T05:13:21.181Z,98696.47
2023-03-07T05:13:56.237Z,98710.03
2023-03-07T05:14:28.299Z,98701.06
2023-03-07T05:15:03.289Z,98700.66
2023-03-07T05:15:38.686Z,98692.56
2023-03-07T05:16:12.268Z,98700.91
2023-03-07T05:16:47.760Z,98693.78
2023-03-07T05:17:21.502Z,98698.13
2023-03-07T05:17:57.238Z,98706.22
2023-03-07T05:18:53.786Z,98706.94
2023-03-07T05:19:26.867Z,98705.41
2023-03-07T05:20:00.156Z,98708.06
2023-03-07T05:20:35.336Z,98708.34
2023-03-07T05:21:10.312Z,98704.72
2023-03-07T05:21:45.518Z,98711.16
2023-03-07T05:22:21.305Z,98716.88
2023-03-07T05:22:57.123Z,98706.94
2023-03-07T05:23:30.444Z,98712.38
2023-03-07T05:24:05.394Z,98710.56
2023-03-07T05:24:40.188Z,98704.97
2023-03-07T05:25:13.618Z,98714.22
2023-03-07T05:25:47.927Z,98715.75
2023-03-07T05:26:23.285Z,98709.59
2023-03-07T05:26:59.404Z,98707.78
2023-03-07T05:27:34.292Z,98709.72
2023-03-07T05:28:09.247Z,98711.28
2023-03-07T05:28:44.178Z,98699.34
2023-03-07T05:29:19.181Z,98695.03
2023-03-07T05:29:54.240Z,98703.72
2023-03-07T05:30:29.320Z,98697.84
2023-03-07T05:31:04.918Z,98698.66
2023-03-07T05:31:41.390Z,98697.00
2023-03-07T05:32:16.298Z,98695.75
2023-03-07T05:32:51.559Z,98697.97
2023-03-07T05:33:25.639Z,98696.00
2023-03-07T05:33:59.504Z,98699.50
2023-03-07T05:34:33.285Z,98695.03
2023-03-07T05:35:11.310Z,98700.75
2023-03-07T05:35:47.053Z,98704.91
2023-03-07T05:36:22.239Z,98704.09
2023-03-07T05:36:58.433Z,98707.72
2023-03-07T05:37:33.567Z,98707.72
2023-03-07T05:38:07.448Z,98701.59
2023-03-07T05:38:41.342Z,98703.72
2023-03-07T05:39:16.245Z,98706.47
2023-03-07T05:39:51.200Z,98697.19
2023-03-07T05:40:26.293Z,98699.72
2023-03-07T05:41:32.284Z,98687.28
2023-03-07T05:42:07.334Z,98687.56
2023-03-07T05:42:42.527Z,98695.25
2023-03-07T05:43:16.316Z,98689.53
2023-03-07T05:43:51.327Z,98689.84
2023-03-07T05:44:26.286Z,98686.47
2023-03-07T05:45:01.510Z,98690.13
2023-03-07T05:45:35.414Z,98692.63
2023-03-07T05:46:10.338Z,98690.13
2023-03-07T05:46:45.315Z,98693.34
2023-03-07T05:47:20.284Z,98699.75
2023-03-07T05:48:16.466Z,98696.13
2023-03-07T05:48:51.408Z,98696.13
2023-03-07T05:49:26.220Z,98689.97
2023-03-07T05:50:34.383Z,98697.09
2023-03-07T05:51:40.329Z,98689.84
2023-03-07T05:52:15.180Z,98691.34
2023-03-07T05:52:50.300Z,98687.03
2023-03-07T05:53:25.248Z,98688.69
2023-03-07T05:53:57.881Z,98692.75
2023-03-07T05:54:33.205Z,98693.69
2023-03-07T05:55:08.784Z,98681.88
2023-03-07T05:55:42.250Z,98687.31
2023-03-07T05:56:17.381Z,98681.88
2023-03-07T05:56:52.250Z,98689.53
2023-03-07T05:57:28.595Z,98696.38
2023-03-07T05:58:02.674Z,98698.59
2023-03-07T05:58:36.294Z,98700.41
2023-03-07T05:59:15.502Z,98699.44
2023-03-07T06:00:21.999Z,98705.59
2023-03-07T06:01:01.645Z,98698.44
2023-03-07T06:01:37.309Z,98701.69
2023-03-07T06:02:12.226Z,98700.41
2023-03-07T06:02:47.330Z,98700.09
2023-03-07T06:03:22.371Z,98704.47
2023-03-07T06:03:56.258Z,98703.47
2023-03-07T06:04:31.295Z,98707.66
2023-03-07T06:05:06.443Z,98711.16
2023-03-07T06:05:41.566Z,98706.41
2023-03-07T06:06:15.550Z,98710.06
2023-03-07T06:06:49.346Z,98705.59
2023-03-07T06:07:24.230Z,98712.44
2023-03-07T06:08:30.224Z,98709.66
2023-03-07T06:09:05.897Z,98713.75
2023-03-07T06:09:41.343Z,98710.81
2023-03-07T06:10:16.741Z,98719.88
2023-03-07T06:10:54.650Z,98714.28
2023-03-07T06:11:28.320Z,98715.94
2023-03-07T06:12:02.139Z,98719.03
2023-03-07T06:12:37.184Z,98712.28
2023-03-07T06:13:11.935Z,98720.28
2023-03-07T06:13:45.197Z,98718.03
2023-03-07T06:14:20.430Z,98719.88
2023-03-07T06:14:55.198Z,98729.91
2023-03-07T06:15:30.202Z,98726.00
2023-03-07T06:16:37.823Z,98733.66
2023-03-07T06:17:11.532Z,98729.19
2023-03-07T06:17:45.335Z,98737.16
2023-03-07T06:18:21.416Z,98733.38
2023-03-07T06:18:56.373Z,98734.59
2023-03-07T06:19:31.611Z,98736.97
2023-03-07T06:20:05.784Z,98738.13
2023-03-07T06:20:39.239Z,98737.56
2023-03-07T06:21:17.166Z,98742.47
2023-03-07T06:21:50.666Z,98739.63
2023-03-07T06:22:24.340Z,98735.72
2023-03-07T06:23:00.813Z,98734.16
2023-03-07T06:23:37.290Z,98736.97
2023-03-07T06:24:12.271Z,98734.47
2023-03-07T06:24:47.209Z,98736.97
2023-03-07T06:25:22.246Z,98739.34
2023-03-07T06:25:57.564Z,98734.16
2023-03-07T06:26:34.260Z,98734.16
2023-03-07T06:27:09.264Z,98729.69
2023-03-07T06:28:17.257Z,98731.66
2023-03-07T06:28:52.294Z,98724.50
2023-03-07T06:29:27.554Z,98730.28
2023-03-07T06:30:00.361Z,98728.31
2023-03-07T06:30:35.638Z,98728.44
2023-03-07T06:31:15.653Z,98729.91
2023-03-07T06:31:51.427Z,98727.59
2023-03-07T06:32:26.422Z,98720.94
2023-03-07T06:33:32.309Z,98735.91
2023-03-07T06:34:07.272Z,98733.38
2023-03-07T06:35:15.339Z,98737.72
2023-03-07T06:35:50.244Z,98738.00
2023-03-07T06:36:25.257Z,98735.22
2023-03-07T06:37:00.370Z,98744.72
2023-03-07T06:37:35.344Z,98741.06
2023-03-07T06:38:12.554Z,98745.69
2023-03-07T06:38:46.715Z,98743.06
2023-03-07T06:39:21.530Z,98736.06
2023-03-07T06:40:18.945Z,98736.91
2023-03-07T06:41:26.850Z,98736.22
2023-03-07T06:42:00.305Z,98725.75
2023-03-07T06:42:35.886Z,98734.41
2023-03-07T06:43:12.340Z,98733.00
2023-03-07T06:43:51.746Z,98730.81
2023-03-07T06:44:25.322Z,98731.34
2023-03-07T06:45:00.262Z,98736.66
2023-03-07T06:45:35.413Z,98737.06
2023-03-07T06:46:10.521Z,98737.22
2023-03-07T06:46:45.226Z,98743.63
2023-03-07T06:47:20.271Z,98757.66
2023-03-07T06:47:55.326Z,98751.50
2023-03-07T06:48:28.341Z,98748.53
2023-03-07T06:49:03.228Z,98749.78
2023-03-07T06:49:38.214Z,98755.94
2023-03-07T06:50:13.340Z,98751.28
2023-03-07T06:50:48.318Z,98751.28
2023-03-07T06:51:23.276Z,98748.25
2023-03-07T06:51:58.250Z,98760.00
2023-03-07T06:52:33.343Z,98756.50
2023-03-07T06:53:06.328Z,98759.16
2023-03-07T06:53:41.322Z,98757.94
2023-03-07T06:54:49.219Z,98751.09
2023-03-07T06:55:24.650Z,98754.72
2023-03-07T06:55:58.515Z,98754.28
2023-03-07T06:56:36.017Z,98755.13
2023-03-07T06:57:11.299Z,98757.50
2023-03-07T06:57:46.798Z,98758.50
2023-03-07T06:58:20.235Z,98755.00
2023-03-07T06:59:26.346Z,98752.44
2023-03-07T07:00:02.891Z,98754.84
2023-03-07T07:01:17.077Z,98755.38
2023-03-07T07:02:24.343Z,98757.06
2023-03-07T07:02:57.803Z,98751.88
2023-03-07T07:03:33.277Z,98755.69
2023-03-07T07:04:08.360Z,98753.84
2023-03-07T07:04:44.152Z,98760.69
2023-03-07T07:05:17.511Z,98761.41
2023-03-07T07:05:52.290Z,98758.91
2023-03-07T07:07:00.390Z,98763.06
2023-03-07T07:07:35.249Z,98764.91
2023-03-07T07:08:10.172Z,98756.50
2023-03-07T07:08:45.406Z,98761.69
2023-03-07T07:09:20.302Z,98766.72
2023-03-07T07:09:55.344Z,98766.25
2023-03-07T07:10:30.253Z,98760.09
2023-03-07T07:11:05.486Z,98753.84
2023-03-07T07:11:40.576Z,98760.81
2023-03-07T07:12:48.565Z,98758.44
2023-03-07T07:13:22.194Z,98761.50
2023-03-07T07:13:57.278Z,98758.41
2023-03-07T07:15:05.697Z,98756.88
2023-03-07T07:15:39.431Z,98754.91
2023-03-07T07:16:14.360Z,98756.03
2023-03-07T07:16:49.291Z,98759.25
2023-03-07T07:17:24.408Z,98759.09
2023-03-07T07:17:59.281Z,98760.25
2023-03-07T07:18:35.423Z,98757.03
2023-03-07T07:19:10.371Z,98763.03
2023-03-07T07:19:45.235Z,98765.25
2023-03-07T07:20:20.726Z,98763.44
2023-03-07T07:20:55.924Z,98764.97
2023-03-07T07:21:31.296Z,98764.13
2023-03-07T07:22:51.678Z,98765.75
2023-03-07T07:23:27.272Z,98756.53
2023-03-07T07:24:34.922Z,98757.09
2023-03-07T07:25:10.651Z,98761.25
2023-03-07T07:25:45.892Z,98756.78
2023-03-07T07:26:20.824Z,98750.94
2023-03-07T07:26:56.532Z,98759.31
2023-03-07T07:27:30.041Z,98755.66
2023-03-07T07:28:04.877Z,98755.66
2023-03-07T07:28:39.825Z,98748.28
2023-03-07T07:29:16.016Z,98748.69
2023-03-07T07:29:50.894Z,98747.28
2023-03-07T07:30:26.012Z,98749.09
2023-03-07T07:31:00.899Z,98751.22
2023-03-07T07:31:35.989Z,98743.78
2023-03-07T07:32:11.021Z,98752.59
2023-03-07T07:32:45.547Z,98752.28
2023-03-07T07:33:21.165Z,98753.69
2023-03-07T07:33:55.155Z,98756.06
2023-03-07T07:34:29.221Z,98763.06
2023-03-07T07:35:02.983Z,98759.25